Pagrindinis puslapis
METAR-TAF:

METAR-TAF

Oro uostai :

Bad Vöslau, Austrija

platuma: 47-57-52N, ilguma: 016-15-34E, Aukštis: 233 m

Dabartinis oras

Ataskaita buvo paskelbta 4 valandos ir 12 minutes, ne 18:00 UTC
Vėjas 8 kt iš Pietų/Pietryčių
Temperatūra 15°C
Drėgmė 23%
Slėgis
Matomumas 10 km arba daugiau
nėra debesų žemiau 1500 m ir nėra kamuolinių lietaus debesų

METAR: LOAV 071800Z 15008KT CAVOK 15/M06

Laikas: 00:12 (22:12 UTC)

Prognozė

Ataskaita buvo paskelbta 10 valandos ir 47 minutes, ne 11:25 UTC
Prognozė galioja nuo 07 metu 12 UTC su 07 metu 21 UTC
Vėjas 15 kt iš Pietų/Pietryčių
Matomumas 10 km arba daugiau
nėra debesų žemiau 1500 m ir nėra kamuolinių lietaus debesų

TAF: LOAV 071125Z 0712/0721 16015KT CAVOK

Orai ataskaitas ir orų prognozės (METAR, TAF).

turimą stotys yra geltonos ir raudonos taškus žemėlapyje.

Perkelti pele per norėdami pamatyti stoties vardą.

Tada spustelėkite, norėdami matyti oro stebėjimo ir prognozės.

Norėdami pakeisti žemėlapį: spustelėkite ant žalios mygtukų su juodo kryžiaus žemyn,; žalią mygtuką su brūkšneliu, jei norite nutolinti; arba žalių rodyklių gretimoms žemėlapius.


METAR-TAF: